KZZV/ZZV METAR and TAF weather

Enter ICAO airport designator
Station Type Date Time Source
KZZV METAR 2019/02/21 15:53 UTC NOAA

KZZV 211553Z AUTO 25008KT 10SM CLR 05/M01 A3018 RMK AO2 SLP223 T00501011


Station Type Date Time Source
KZZV Decoded METAR 2019/02/21 15:53 UTC NOAA

ZANESVILLE MUNICIPAL AIRPORT , OH, United States (KZZV) 39-57N 81-54W 268M
Feb 21, 2019 - 10:53 AM EST / 2019.02.21 1553 UTC
Wind: from the WSW (250 degrees) at 9 MPH (8 KT):0
Visibility: 10 mile(s):0
Sky conditions: clear
Temperature: 41.0 F (5.0 C)
Dew Point: 30.0 F (-1.1 C)
Relative Humidity: 64%
Pressure (altimeter): 30.18 in. Hg (1022 hPa)
ob: KZZV 211553Z AUTO 25008KT 10SM CLR 05/M01 A3018 RMK AO2 SLP223 T00501011
cycle: 16

Station Type Date Time Source
KZZV TAF 2019/02/21 12:24 UTC NOAA

TAF KZZV 211122Z 2112/2212 26008KT P6SM BKN020
FM211400 26008G16KT P6SM BKN250
FM220100 28004KT P6SM BKN250


Example: see airport list